createdAt,value
2019-04-05T00:03:18.900Z,8.31
2019-04-05T00:06:49.008Z,8.32
2019-04-05T00:10:19.091Z,8.36
2019-04-05T00:13:49.162Z,8.31
2019-04-05T00:17:19.139Z,8.25
2019-04-05T00:20:49.270Z,8.14
2019-04-05T00:24:19.323Z,8.15
2019-04-05T00:27:49.368Z,8.14
2019-04-05T00:31:19.531Z,8.15
2019-04-05T00:34:49.644Z,8.07
2019-04-05T00:38:19.765Z,8.03
2019-04-05T00:41:49.835Z,7.95
2019-04-05T00:45:27.947Z,7.83
2019-04-05T00:48:58.937Z,7.78
2019-04-05T00:52:28.938Z,7.73
2019-04-05T00:55:59.287Z,7.63
2019-04-05T00:59:29.325Z,7.62
2019-04-05T01:00:16.796Z,7.58
2019-04-05T01:03:46.930Z,7.48
2019-04-05T01:07:16.948Z,7.46
2019-04-05T01:10:46.997Z,7.39
2019-04-05T01:14:17.371Z,7.36
2019-04-05T01:17:48.077Z,7.35
2019-04-05T01:21:19.768Z,7.32
2019-04-05T01:24:49.952Z,7.24
2019-04-05T01:28:20.810Z,7.18
2019-04-05T01:31:50.942Z,7.12
2019-04-05T01:35:21.262Z,7.09
2019-04-05T01:38:51.415Z,7.08
2019-04-05T01:42:21.883Z,7.14
2019-04-05T01:45:53.674Z,7.24
2019-04-05T01:49:24.274Z,7.36
2019-04-05T01:52:54.385Z,7.46
2019-04-05T01:56:24.575Z,7.62
2019-04-05T01:59:54.785Z,7.78
2019-04-05T02:03:25.025Z,7.92
2019-04-05T02:06:55.233Z,8
2019-04-05T02:10:25.467Z,8.1
2019-04-05T02:13:55.744Z,8.2
2019-04-05T02:17:25.868Z,8.24
2019-04-05T02:20:55.968Z,8.31
2019-04-05T02:24:26.049Z,8.28
2019-04-05T02:27:56.147Z,8.29
2019-04-05T02:31:26.215Z,8.21
2019-04-05T02:34:56.367Z,8.14
2019-04-05T02:38:26.518Z,8.09
2019-04-05T02:41:57.016Z,7.91
2019-04-05T02:45:31.603Z,7.76
2019-04-05T02:49:03.178Z,7.66
2019-04-05T02:52:34.046Z,7.51
2019-04-05T02:56:05.216Z,7.42
2019-04-05T02:59:35.580Z,7.32
2019-04-05T03:00:16.984Z,7.31
2019-04-05T03:03:47.371Z,7.27
2019-04-05T03:07:17.745Z,7.28
2019-04-05T03:11:28.142Z,7.34
2019-04-05T03:15:00.527Z,7.49
2019-04-05T03:18:37.807Z,7.64
2019-04-05T03:22:12.394Z,7.74
2019-04-05T03:25:43.185Z,7.79
2019-04-05T03:29:13.537Z,7.81
2019-04-05T03:32:43.989Z,7.8
2019-04-05T03:36:15.183Z,7.81
2019-04-05T03:39:45.559Z,7.75
2019-04-05T03:43:15.852Z,7.72
2019-04-05T03:46:56.487Z,7.62
2019-04-05T03:50:27.639Z,7.58
2019-04-05T03:53:57.987Z,7.62
2019-04-05T03:57:28.217Z,7.67
2019-04-05T04:00:58.420Z,7.75
2019-04-05T04:04:29.327Z,7.9
2019-04-05T04:07:59.731Z,8.07
2019-04-05T04:11:30.015Z,8.2
2019-04-05T04:15:14.796Z,8.22
2019-04-05T04:18:45.140Z,8.25
2019-04-05T04:22:26.696Z,8.24
2019-04-05T04:25:57.215Z,8.19
2019-04-05T04:29:27.240Z,8.17
2019-04-05T04:32:59.301Z,8.17
2019-04-05T04:36:29.612Z,8.26
2019-04-05T04:39:59.878Z,8.31
2019-04-05T04:43:30.030Z,8.39
2019-04-05T04:47:00.472Z,8.53
2019-04-05T04:50:31.057Z,8.59
2019-04-05T04:54:01.843Z,8.65
2019-04-05T04:57:32.075Z,8.76
2019-04-05T05:00:16.320Z,8.74
2019-04-05T05:03:46.741Z,8.86
2019-04-05T05:07:17.013Z,9.05
2019-04-05T05:10:47.184Z,9.08
2019-04-05T05:14:17.507Z,9.11
2019-04-05T05:17:58.153Z,9.13
2019-04-05T05:21:29.279Z,9.15
2019-04-05T05:24:59.452Z,9.21
2019-04-05T05:28:32.679Z,9.37
2019-04-05T05:32:03.323Z,9.53
2019-04-05T05:35:33.698Z,9.54
2019-04-05T05:39:06.307Z,9.7
2019-04-05T05:42:36.762Z,9.63
2019-04-05T05:46:06.938Z,9.53
2019-04-05T05:49:36.956Z,9.53
2019-04-05T05:53:07.378Z,9.43
2019-04-05T05:56:37.471Z,9.55
2019-04-05T06:00:09.719Z,9.68
2019-04-05T06:03:39.885Z,9.78
2019-04-05T06:07:10.005Z,9.8
2019-04-05T06:10:40.315Z,9.92
2019-04-05T06:14:10.406Z,9.87
2019-04-05T06:17:40.618Z,9.92
2019-04-05T06:21:10.648Z,10.03
2019-04-05T06:24:40.715Z,10.05
2019-04-05T06:28:10.818Z,9.97
2019-04-05T06:31:40.884Z,10.11
2019-04-05T06:35:11.109Z,10.37
2019-04-05T06:38:41.179Z,10.45
2019-04-05T06:42:11.245Z,10.54
2019-04-05T06:45:41.403Z,10.5
2019-04-05T06:49:11.570Z,10.44
2019-04-05T06:52:41.570Z,10.46
2019-04-05T06:56:11.753Z,10.84
2019-04-05T06:59:42.054Z,11.12
2019-04-05T07:00:30.131Z,11.12
2019-04-05T07:04:00.524Z,11.06
2019-04-05T07:07:30.662Z,11.28
2019-04-05T07:11:00.833Z,11.35
2019-04-05T07:14:30.932Z,11.39
2019-04-05T07:18:01.130Z,11.38
2019-04-05T07:21:31.333Z,11.2
2019-04-05T07:25:01.452Z,11.14
2019-04-05T07:28:31.606Z,11.34
2019-04-05T07:32:01.782Z,11.48
2019-04-05T07:35:33.545Z,11.53
2019-04-05T07:39:06.329Z,11.49
2019-04-05T07:42:36.551Z,11.62
2019-04-05T07:46:06.646Z,11.65
2019-04-05T07:49:36.725Z,11.6
2019-04-05T07:53:06.870Z,11.41
2019-04-05T07:56:36.782Z,11.46
2019-04-05T08:00:25.880Z,11.65
2019-04-05T08:03:58.047Z,11.4
2019-04-05T08:07:34.204Z,11.25
2019-04-05T08:11:04.532Z,11.32
2019-04-05T08:14:37.473Z,11.57
2019-04-05T08:18:07.616Z,11.7
2019-04-05T08:21:38.088Z,11.5
2019-04-05T08:25:08.380Z,11.6
2019-04-05T08:28:38.469Z,11.59
2019-04-05T08:32:14.515Z,11.75
2019-04-05T08:35:44.953Z,12.07
2019-04-05T08:39:15.147Z,11.91
2019-04-05T08:42:45.262Z,11.91
2019-04-05T08:46:15.624Z,12.2
2019-04-05T08:49:45.711Z,11.99
2019-04-05T08:53:15.824Z,11.99
2019-04-05T08:56:45.860Z,12.08
2019-04-05T09:00:17.266Z,12.37
2019-04-05T09:03:47.425Z,12.28
2019-04-05T09:07:17.533Z,12.11
2019-04-05T09:10:47.765Z,12.12
2019-04-05T09:14:20.627Z,11.82
2019-04-05T09:17:51.032Z,11.72
2019-04-05T09:21:21.157Z,11.75
2019-04-05T09:24:51.397Z,11.65
2019-04-05T09:28:21.535Z,11.88
2019-04-05T09:31:51.623Z,11.86
2019-04-05T09:35:21.820Z,11.83
2019-04-05T09:38:51.896Z,11.89
2019-04-05T09:42:21.987Z,12.32
2019-04-05T09:45:52.039Z,12.76
2019-04-05T09:49:22.198Z,12.83
2019-04-05T09:52:52.289Z,12.72
2019-04-05T09:56:22.381Z,13.19
2019-04-05T09:59:52.494Z,13.28
2019-04-05T10:03:22.563Z,13.61
2019-04-05T10:06:52.585Z,12.95
2019-04-05T10:10:22.662Z,12.84
2019-04-05T10:13:52.657Z,12.94
2019-04-05T10:17:22.720Z,12.75
2019-04-05T10:20:52.898Z,13.25
2019-04-05T10:24:22.985Z,13.68
2019-04-05T10:27:52.994Z,13.69
2019-04-05T10:31:23.039Z,13.56
2019-04-05T10:34:53.187Z,13.31
2019-04-05T10:38:23.283Z,13.81
2019-04-05T10:42:03.495Z,13.99
2019-04-05T10:45:34.157Z,14.04
2019-04-05T10:49:04.266Z,13.83
2019-04-05T10:52:34.559Z,13.37
2019-04-05T10:56:04.923Z,13.5
2019-04-05T10:59:35.080Z,13.67
2019-04-05T11:00:17.397Z,13.72
2019-04-05T11:03:47.466Z,13.72
2019-04-05T11:07:17.553Z,14.02
2019-04-05T11:10:47.720Z,13.87
2019-04-05T11:14:17.862Z,13.77
2019-04-05T11:17:47.968Z,13.53
2019-04-05T11:21:18.882Z,13.81
2019-04-05T11:24:49.032Z,14.07
2019-04-05T11:28:19.202Z,14.83
2019-04-05T11:31:56.922Z,14.93
2019-04-05T11:35:27.586Z,15.36
2019-04-05T11:38:58.021Z,15.09
2019-04-05T11:42:28.755Z,14.57
2019-04-05T11:45:58.976Z,14.37
2019-04-05T11:49:29.378Z,13.66
2019-04-05T11:52:59.518Z,13.63
2019-04-05T11:56:30.882Z,13.98
2019-04-05T12:00:01.069Z,14.38
2019-04-05T12:03:31.347Z,14.95
2019-04-05T12:07:01.389Z,15.39
2019-04-05T12:10:32.071Z,15.17
2019-04-05T12:14:02.963Z,15.11
2019-04-05T12:17:35.047Z,15.86
2019-04-05T12:21:05.916Z,15.93
2019-04-05T12:24:36.208Z,15.67
2019-04-05T12:28:10.084Z,15.81
2019-04-05T12:31:40.622Z,15.46
2019-04-05T12:35:11.031Z,15.66
2019-04-05T12:38:41.230Z,15.37
2019-04-05T12:42:12.268Z,15.67
2019-04-05T12:45:44.640Z,15.86
2019-04-05T12:49:15.802Z,16.1
2019-04-05T12:52:45.920Z,16.38
2019-04-05T12:56:16.082Z,16.53
2019-04-05T12:59:46.114Z,16.04
2019-04-05T13:00:17.214Z,16.06
2019-04-05T13:03:47.376Z,15.71
2019-04-05T13:07:17.658Z,15.34
2019-04-05T13:10:48.061Z,16.06
2019-04-05T13:14:18.115Z,15.92
2019-04-05T13:17:48.235Z,15.53
2019-04-05T13:21:18.270Z,15.73
2019-04-05T13:24:48.360Z,15.74
2019-04-05T13:28:19.069Z,15.72
2019-04-05T13:31:49.598Z,16.24
2019-04-05T13:35:19.787Z,16.28
2019-04-05T13:38:55.026Z,15.77
2019-04-05T13:42:25.387Z,15.65
2019-04-05T13:45:55.544Z,15.88
2019-04-05T13:49:25.654Z,15.91
2019-04-05T13:52:55.734Z,16.46
2019-04-05T13:56:25.860Z,16.82
2019-04-05T13:59:56.013Z,17.08
2019-04-05T14:03:26.169Z,16.69
2019-04-05T14:06:56.295Z,16.68
2019-04-05T14:10:26.321Z,16.76
2019-04-05T14:13:56.465Z,16.13
2019-04-05T14:17:26.553Z,16.1
2019-04-05T14:20:56.587Z,16.45
2019-04-05T14:24:26.836Z,16.38
2019-04-05T14:27:57.092Z,16.08
2019-04-05T14:31:27.211Z,16.17
2019-04-05T14:34:57.413Z,16
2019-04-05T14:38:27.498Z,16.38
2019-04-05T14:42:09.057Z,16.95
2019-04-05T14:45:39.507Z,16.83
2019-04-05T14:49:09.590Z,16.91
2019-04-05T14:52:39.696Z,17.05
2019-04-05T14:56:09.872Z,17.88
2019-04-05T14:59:40.100Z,18.04
2019-04-05T15:00:17.311Z,18.07
2019-04-05T15:03:47.524Z,18.13
2019-04-05T15:07:20.505Z,17.29
2019-04-05T15:10:51.447Z,17.21
2019-04-05T15:14:21.740Z,17.86
2019-04-05T15:17:51.785Z,18.61
2019-04-05T15:21:21.926Z,19.15
2019-04-05T15:24:52.035Z,19.47
2019-04-05T15:28:22.514Z,19.26
2019-04-05T15:31:55.507Z,19.15
2019-04-05T15:35:26.419Z,19.61
2019-04-05T15:39:01.262Z,19.27
2019-04-05T15:42:31.730Z,19.61
2019-04-05T15:46:01.889Z,18.81
2019-04-05T15:49:32.064Z,18.12
2019-04-05T15:53:02.876Z,17.76
2019-04-05T15:56:34.110Z,16.3
2019-04-05T16:00:08.391Z,14.82
2019-04-05T16:03:38.554Z,14.27
2019-04-05T16:07:08.745Z,13.51
2019-04-05T16:10:39.057Z,12.69
2019-04-05T16:14:09.123Z,12.49
2019-04-05T16:17:39.384Z,11.96
2019-04-05T16:21:09.524Z,11.69
2019-04-05T16:24:39.650Z,11.55
2019-04-05T16:28:09.764Z,11.25
2019-04-05T16:31:39.908Z,11.13
2019-04-05T16:35:10.208Z,11.06
2019-04-05T16:38:40.347Z,10.88
2019-04-05T16:42:10.496Z,10.73
2019-04-05T16:45:40.727Z,10.44
2019-04-05T16:49:10.952Z,10.37
2019-04-05T16:52:45.016Z,10.33
2019-04-05T16:56:15.358Z,10.13
2019-04-05T16:59:45.422Z,10.04
2019-04-05T17:00:17.298Z,10.04
2019-04-05T17:03:47.439Z,10.06
2019-04-05T17:07:17.669Z,10.03
2019-04-05T17:10:47.694Z,10.04
2019-04-05T17:14:17.765Z,9.98
2019-04-05T17:17:47.904Z,9.96
2019-04-05T17:21:17.934Z,9.94
2019-04-05T17:24:48.072Z,9.84
2019-04-05T17:28:18.142Z,9.84
2019-04-05T17:31:48.199Z,9.8
2019-04-05T17:35:19.865Z,9.78
2019-04-05T17:38:49.956Z,9.86
2019-04-05T17:42:20.000Z,9.93
2019-04-05T17:45:50.267Z,10.05
2019-04-05T17:49:20.307Z,10.17
2019-04-05T17:52:50.388Z,10.26
2019-04-05T17:56:20.616Z,10.42
2019-04-05T17:59:51.284Z,10.44
2019-04-05T18:03:21.358Z,10.29
2019-04-05T18:06:51.632Z,10.34
2019-04-05T18:10:21.839Z,10.23
2019-04-05T18:13:52.047Z,10.35
2019-04-05T18:17:22.210Z,10.29
2019-04-05T18:20:52.412Z,10.4
2019-04-05T18:24:22.434Z,10.48
2019-04-05T18:27:52.691Z,10.57
2019-04-05T18:31:22.799Z,10.51
2019-04-05T18:34:52.929Z,10.47
2019-04-05T18:38:22.983Z,10.35
2019-04-05T18:41:53.052Z,10.36
2019-04-05T18:45:23.213Z,10.34
2019-04-05T18:48:53.194Z,10.24
2019-04-05T18:52:23.345Z,10.2
2019-04-05T18:55:53.434Z,10.15
2019-04-05T18:59:23.499Z,10.2
2019-04-05T19:00:16.822Z,10.2
2019-04-05T19:03:46.925Z,10.22
2019-04-05T19:07:16.935Z,10.23
2019-04-05T19:10:47.004Z,10.27
2019-04-05T19:14:17.127Z,10.26
2019-04-05T19:17:47.164Z,10.29
2019-04-05T19:21:17.173Z,10.22
2019-04-05T19:24:47.274Z,10.23
2019-04-05T19:28:17.355Z,10.31
2019-04-05T19:51:47.910Z,10.33
2019-04-05T19:55:17.996Z,10.31
2019-04-05T19:58:48.118Z,10.37
2019-04-05T20:02:18.287Z,10.48
2019-04-05T20:05:48.509Z,10.44
2019-04-05T20:09:20.674Z,10.42
2019-04-05T20:12:50.880Z,10.47
2019-04-05T20:16:21.013Z,10.5
2019-04-05T20:19:51.100Z,10.47
2019-04-05T20:23:21.154Z,10.37
2019-04-05T20:26:51.330Z,10.28
2019-04-05T20:30:21.525Z,10.3
2019-04-05T20:33:51.762Z,10.29
2019-04-05T20:37:21.876Z,10.29
2019-04-05T20:40:51.923Z,10.27
2019-04-05T20:44:22.019Z,10.27
2019-04-05T20:47:52.156Z,10.25
2019-04-05T20:51:22.098Z,10.11
2019-04-05T20:54:52.218Z,10.15
2019-04-05T20:58:22.287Z,10.15
2019-04-05T21:00:17.559Z,10.2
2019-04-05T21:03:47.719Z,10.13
2019-04-05T21:07:17.770Z,10.26
2019-04-05T21:10:47.827Z,10.3
2019-04-05T21:14:17.800Z,10.31
2019-04-05T21:17:47.917Z,10.28
2019-04-05T21:21:17.942Z,10.21
2019-04-05T21:24:47.988Z,10.27
2019-04-05T21:28:18.051Z,10.38
2019-04-05T21:31:48.248Z,10.42
2019-04-05T21:35:18.348Z,10.38
2019-04-05T21:38:48.475Z,10.39
2019-04-05T21:42:18.730Z,10.43
2019-04-05T21:45:48.882Z,10.41
2019-04-05T21:49:19.081Z,10.47
2019-04-05T21:52:49.164Z,10.46
2019-04-05T21:56:19.294Z,10.41
2019-04-05T21:59:49.425Z,10.32
2019-04-05T22:03:19.536Z,10.15
2019-04-05T22:06:49.615Z,10.01
2019-04-05T22:10:19.720Z,10.06
2019-04-05T22:13:49.834Z,10.11
2019-04-05T22:17:19.887Z,10.06
2019-04-05T22:20:50.024Z,10.13
2019-04-05T22:24:20.077Z,10.2
2019-04-05T22:27:50.177Z,10.23
2019-04-05T22:31:20.175Z,10.22
2019-04-05T22:34:50.251Z,10.17
2019-04-05T22:38:20.318Z,10.11
2019-04-05T22:41:50.310Z,10.07
2019-04-05T22:45:20.371Z,10.11
2019-04-05T22:48:50.419Z,10.1
2019-04-05T22:52:20.558Z,9.95
2019-04-05T22:55:50.790Z,9.78
2019-04-05T22:59:20.761Z,9.54
2019-04-05T23:00:17.239Z,9.55
2019-04-05T23:03:47.332Z,9.65
2019-04-05T23:07:17.449Z,9.73
2019-04-05T23:10:47.530Z,9.78
2019-04-05T23:14:17.539Z,9.75
2019-04-05T23:17:47.718Z,9.65
2019-04-05T23:21:17.940Z,9.7
2019-04-05T23:24:47.992Z,9.78
2019-04-05T23:28:18.015Z,9.85
2019-04-05T23:31:48.312Z,9.82
2019-04-05T23:35:18.482Z,9.86
2019-04-05T23:38:48.596Z,9.88
2019-04-05T23:42:18.807Z,9.82
2019-04-05T23:45:49.002Z,9.63
2019-04-05T23:49:19.010Z,9.62
2019-04-05T23:52:49.205Z,9.64
2019-04-05T23:56:19.399Z,9.73
2019-04-05T23:59:49.480Z,9.77
